createdAt,value
2018-10-18T00:02:04.994Z,36.07
2018-10-18T00:04:33.833Z,37.10
2018-10-18T00:07:02.160Z,35.83
2018-10-18T00:09:29.899Z,34.27
2018-10-18T00:11:58.219Z,35.03
2018-10-18T00:14:27.116Z,39.53
2018-10-18T00:16:55.449Z,37.07
2018-10-18T00:19:23.188Z,38.33
2018-10-18T00:21:51.508Z,38.40
2018-10-18T00:24:19.855Z,39.23
2018-10-18T00:26:48.161Z,39.70
2018-10-18T00:29:17.092Z,38.40
2018-10-18T00:31:44.831Z,38.47
2018-10-18T00:34:13.740Z,39.90
2018-10-18T00:36:41.478Z,34.97
2018-10-18T00:39:10.384Z,36.87
2018-10-18T00:41:38.122Z,38.33
2018-10-18T00:44:07.077Z,36.97
2018-10-18T00:46:35.630Z,39.53
2018-10-18T00:49:04.230Z,37.00
2018-10-18T00:51:32.540Z,35.00
2018-10-18T00:54:00.426Z,37.10
2018-10-18T00:56:29.191Z,37.27
2018-10-18T00:58:57.510Z,34.13
2018-10-18T01:01:25.837Z,40.20
2018-10-18T01:03:54.159Z,45.00
2018-10-18T01:06:22.484Z,35.53
2018-10-18T01:08:51.090Z,41.17
2018-10-18T01:11:19.937Z,39.70
2018-10-18T01:13:47.685Z,38.93
2018-10-18T01:16:16.585Z,34.57
2018-10-18T01:18:44.903Z,41.30
2018-10-18T01:21:14.221Z,37.73
2018-10-18T01:23:41.911Z,39.13
2018-10-18T01:26:10.309Z,39.33
2018-10-18T01:28:38.559Z,36.53
2018-10-18T01:31:06.350Z,38.83
2018-10-18T01:33:35.252Z,38.07
2018-10-18T01:36:03.596Z,33.87
2018-10-18T01:38:31.324Z,33.97
2018-10-18T01:41:00.224Z,33.60
2018-10-18T01:43:27.965Z,30.60
2018-10-18T01:45:57.187Z,36.30
2018-10-18T01:48:25.511Z,36.73
2018-10-18T01:50:53.240Z,31.80
2018-10-18T01:53:21.568Z,45.33
2018-10-18T01:55:49.891Z,51.50
2018-10-18T01:58:18.216Z,48.73
2018-10-18T02:00:46.536Z,49.13
2018-10-18T02:03:14.863Z,45.77
2018-10-18T02:05:43.188Z,54.40
2018-10-18T02:08:12.124Z,47.10
2018-10-18T02:10:39.834Z,44.70
2018-10-18T02:13:08.744Z,44.53
2018-10-18T02:15:37.064Z,43.70
2018-10-18T02:18:05.417Z,43.50
2018-10-18T02:20:33.124Z,37.70
2018-10-18T02:23:02.031Z,36.67
2018-10-18T02:25:30.351Z,40.47
2018-10-18T02:27:58.095Z,36.03
2018-10-18T02:30:26.992Z,32.83
2018-10-18T02:32:54.843Z,32.93
2018-10-18T02:35:23.743Z,31.17
2018-10-18T02:37:52.064Z,34.27
2018-10-18T02:40:20.384Z,32.57
2018-10-18T02:42:48.712Z,34.00
2018-10-18T02:45:16.451Z,35.93
2018-10-18T02:47:45.671Z,26.73
2018-10-18T02:50:13.415Z,26.87
2018-10-18T02:52:42.321Z,27.40
2018-10-18T02:55:10.647Z,28.70
2018-10-18T02:57:38.383Z,29.33
2018-10-18T03:00:07.381Z,30.13
2018-10-18T03:02:35.032Z,27.53
2018-10-18T03:05:03.931Z,29.60
2018-10-18T03:07:32.619Z,27.80
2018-10-18T03:10:01.673Z,32.67
2018-10-18T03:12:29.422Z,25.90
2018-10-18T03:14:58.329Z,29.97
2018-10-18T03:17:27.066Z,24.80
2018-10-18T03:19:55.386Z,28.70
2018-10-18T03:22:23.705Z,27.80
2018-10-18T03:24:51.452Z,29.30
2018-10-18T03:27:19.900Z,30.67
2018-10-18T03:29:48.233Z,27.37
2018-10-18T03:32:17.135Z,32.43
2018-10-18T03:34:45.493Z,38.67
2018-10-18T03:37:13.231Z,32.23
2018-10-18T03:39:42.135Z,36.10
2018-10-18T03:42:10.507Z,37.67
2018-10-18T03:44:38.212Z,32.93
2018-10-18T03:47:07.122Z,38.90
2018-10-18T03:49:34.867Z,34.60
2018-10-18T03:52:03.396Z,35.27
2018-10-18T03:54:32.299Z,35.67
2018-10-18T03:57:00.624Z,35.13
2018-10-18T03:59:28.365Z,40.70
2018-10-18T04:01:56.684Z,38.73
2018-10-18T04:04:25.010Z,46.30
2018-10-18T04:06:53.340Z,60.80
2018-10-18T04:09:22.248Z,48.27
2018-10-18T04:11:50.567Z,51.20
2018-10-18T04:14:18.908Z,40.83
2018-10-18T04:16:47.219Z,38.87
2018-10-18T04:19:14.963Z,39.13
2018-10-18T04:21:43.292Z,38.97
2018-10-18T04:24:11.686Z,36.53
2018-10-18T04:26:39.929Z,42.60
2018-10-18T04:29:08.252Z,39.60
2018-10-18T04:31:36.573Z,39.90
2018-10-18T04:34:05.472Z,36.80
2018-10-18T04:36:33.828Z,42.03
2018-10-18T04:39:01.571Z,39.83
2018-10-18T04:41:30.482Z,38.47
2018-10-18T04:43:58.225Z,34.83
2018-10-18T04:46:27.072Z,33.50
2018-10-18T04:48:55.707Z,37.60
2018-10-18T04:51:23.389Z,43.43
2018-10-18T04:53:52.294Z,46.57
2018-10-18T04:56:20.031Z,42.33
2018-10-18T04:58:48.938Z,46.53
2018-10-18T05:01:17.348Z,40.27
2018-10-18T05:03:45.905Z,39.37
2018-10-18T05:06:14.225Z,38.10
2018-10-18T05:08:42.541Z,34.33
2018-10-18T05:11:10.902Z,26.87
2018-10-18T05:13:39.208Z,26.37
2018-10-18T05:16:07.725Z,27.00
2018-10-18T05:18:36.635Z,33.43
2018-10-18T05:21:04.368Z,38.27
2018-10-18T05:23:33.277Z,52.80
2018-10-18T05:26:01.588Z,54.37
2018-10-18T05:28:29.344Z,56.67
2018-10-18T05:30:57.710Z,64.40
2018-10-18T05:33:25.994Z,73.60
2018-10-18T05:35:54.907Z,72.00
2018-10-18T05:38:22.672Z,74.17
2018-10-18T05:40:51.576Z,72.53
2018-10-18T05:43:19.992Z,63.47
2018-10-18T05:45:47.664Z,75.00
2018-10-18T05:48:16.568Z,86.30
2018-10-18T05:50:44.897Z,90.17
2018-10-18T05:53:12.746Z,123.60
2018-10-18T05:55:40.979Z,110.47
2018-10-18T05:58:09.448Z,110.40
2018-10-18T06:00:38.363Z,103.87
2018-10-18T06:03:06.690Z,107.40
2018-10-18T06:05:35.022Z,97.10
2018-10-18T06:08:02.770Z,107.53
2018-10-18T06:10:42.940Z,104.70
2018-10-18T06:13:11.896Z,104.07
2018-10-18T06:15:39.654Z,103.40
2018-10-18T06:18:07.982Z,93.13
2018-10-18T06:20:36.882Z,93.27
2018-10-18T06:23:05.267Z,90.17
2018-10-18T06:25:33.533Z,90.47
2018-10-18T06:28:01.864Z,98.63
2018-10-18T06:30:29.618Z,96.97
2018-10-18T06:32:58.537Z,82.93
2018-10-18T06:35:26.277Z,107.17
2018-10-18T06:37:55.198Z,107.67
2018-10-18T06:40:23.928Z,105.80
2018-10-18T06:42:52.274Z,107.97
2018-10-18T06:45:20.879Z,101.07
2018-10-18T06:47:48.866Z,111.17
2018-10-18T06:50:17.213Z,110.83
2018-10-18T06:52:45.889Z,106.73
2018-10-18T06:55:14.583Z,124.27
2018-10-18T06:57:42.869Z,126.90
2018-10-18T07:00:11.377Z,113.97
2018-10-18T07:02:39.707Z,169.03
2018-10-18T07:05:08.065Z,92.57
2018-10-18T07:07:35.821Z,102.93
2018-10-18T07:10:04.732Z,77.80
2018-10-18T07:12:33.176Z,74.73
2018-10-18T07:15:00.959Z,62.37
2018-10-18T07:17:29.945Z,106.43
2018-10-18T07:19:58.278Z,66.50
2018-10-18T07:22:26.035Z,40.47
2018-10-18T07:24:55.350Z,35.03
2018-10-18T07:27:23.735Z,31.40
2018-10-18T07:29:52.089Z,30.27
2018-10-18T07:32:20.475Z,30.10
2018-10-18T07:34:48.182Z,43.50
2018-10-18T07:37:17.238Z,33.73
2018-10-18T07:39:45.559Z,37.80
2018-10-18T07:42:13.401Z,36.63
2018-10-18T07:44:42.521Z,34.57
2018-10-18T07:47:10.877Z,37.13
2018-10-18T07:49:39.205Z,40.27
2018-10-18T07:52:07.873Z,40.00
2018-10-18T07:54:35.629Z,54.20
2018-10-18T07:57:04.641Z,48.40
2018-10-18T07:59:33.319Z,94.07
2018-10-18T08:02:01.656Z,65.37
2018-10-18T08:04:29.402Z,42.63
2018-10-18T08:06:57.754Z,50.13
2018-10-18T08:09:26.707Z,49.10
2018-10-18T08:11:55.113Z,49.73
2018-10-18T08:14:23.448Z,45.47
2018-10-18T08:16:51.931Z,46.70
2018-10-18T08:19:21.312Z,46.80
2018-10-18T08:21:49.505Z,48.97
2018-10-18T08:24:17.913Z,43.37
2018-10-18T08:26:45.718Z,42.67
2018-10-18T08:29:14.622Z,47.83
2018-10-18T08:31:43.164Z,44.17
2018-10-18T08:34:11.499Z,40.27
2018-10-18T08:36:39.848Z,45.23
2018-10-18T08:39:08.173Z,46.80
2018-10-18T08:41:36.532Z,49.47
2018-10-18T08:44:04.465Z,40.37
2018-10-18T08:46:33.254Z,41.90
2018-10-18T08:49:01.894Z,40.90
2018-10-18T08:51:30.179Z,39.77
2018-10-18T08:53:59.471Z,41.53
2018-10-18T08:56:27.182Z,42.90
2018-10-18T08:58:54.933Z,37.30
2018-10-18T09:01:23.254Z,37.50
2018-10-18T09:03:52.174Z,42.87
2018-10-18T09:06:20.535Z,74.73
2018-10-18T09:08:48.470Z,599.23
2018-10-18T09:11:16.644Z,136.93
2018-10-18T09:13:45.605Z,62.87
2018-10-18T09:16:13.455Z,31.70
2018-10-18T09:18:42.713Z,33.47
2018-10-18T09:21:10.445Z,35.70
2018-10-18T09:23:39.784Z,38.87
2018-10-18T09:26:07.446Z,37.23
2018-10-18T09:28:36.432Z,41.83
2018-10-18T09:31:05.133Z,38.20
2018-10-18T09:33:32.875Z,31.37
2018-10-18T09:36:01.785Z,35.00
2018-10-18T09:38:30.220Z,45.87
2018-10-18T09:40:58.010Z,86.63
2018-10-18T09:43:26.927Z,43.77
2018-10-18T09:45:54.738Z,38.63
2018-10-18T09:48:24.197Z,38.23
2018-10-18T09:50:52.450Z,47.53
2018-10-18T09:53:20.201Z,38.10
2018-10-18T09:55:49.245Z,38.90
2018-10-18T09:58:16.865Z,35.60
2018-10-18T10:00:45.792Z,41.43
2018-10-18T10:03:15.014Z,38.00
2018-10-18T10:05:43.045Z,39.57
2018-10-18T10:08:11.398Z,34.53
2018-10-18T10:10:40.683Z,31.83
2018-10-18T10:13:09.072Z,37.13
2018-10-18T10:15:37.351Z,36.00
2018-10-18T10:18:05.725Z,39.30
2018-10-18T10:20:33.423Z,35.73
2018-10-18T10:23:03.106Z,38.93
2018-10-18T10:25:30.825Z,40.80
2018-10-18T10:27:59.226Z,62.37
2018-10-18T10:30:28.697Z,193.50
2018-10-18T10:32:56.287Z,102.90
2018-10-18T10:35:24.567Z,49.67
2018-10-18T10:37:53.484Z,35.80
2018-10-18T10:40:21.809Z,32.47
2018-10-18T10:42:50.202Z,27.03
2018-10-18T10:45:18.534Z,29.90
2018-10-18T10:47:46.831Z,31.57
2018-10-18T10:50:15.309Z,29.90
2018-10-18T10:52:43.552Z,32.13
2018-10-18T10:55:12.150Z,28.17
2018-10-18T10:57:40.476Z,28.67
2018-10-18T11:00:08.272Z,30.50
2018-10-18T11:02:37.153Z,24.67
2018-10-18T11:05:04.925Z,27.37
2018-10-18T11:07:33.894Z,24.00
2018-10-18T11:10:02.532Z,23.10
2018-10-18T11:12:30.880Z,25.77
2018-10-18T11:14:58.609Z,23.83
2018-10-18T11:17:27.510Z,22.33
2018-10-18T11:19:55.306Z,25.03
2018-10-18T11:22:24.173Z,27.53
2018-10-18T11:24:52.053Z,24.50
2018-10-18T11:27:20.940Z,29.60
2018-10-18T11:29:49.257Z,29.33
2018-10-18T11:32:17.658Z,23.27
2018-10-18T11:34:45.931Z,29.20
2018-10-18T11:37:14.319Z,21.83
2018-10-18T11:39:43.005Z,21.93
2018-10-18T11:42:11.401Z,23.77
2018-10-18T11:44:39.178Z,27.27
2018-10-18T11:47:08.253Z,19.77
2018-10-18T11:49:36.578Z,28.00
2018-10-18T11:52:04.911Z,24.87
2018-10-18T11:54:33.237Z,36.63
2018-10-18T11:57:01.555Z,21.57
2018-10-18T11:59:29.303Z,21.60
2018-10-18T12:01:58.334Z,21.67
2018-10-18T12:04:26.677Z,40.83
2018-10-18T12:06:54.516Z,33.20
2018-10-18T12:09:23.371Z,28.47
2018-10-18T12:11:51.119Z,19.60
2018-10-18T12:14:19.599Z,19.83
2018-10-18T12:16:48.380Z,20.60
2018-10-18T12:19:17.828Z,22.57
2018-10-18T12:21:46.311Z,19.27
2018-10-18T12:24:14.632Z,23.50
2018-10-18T12:26:42.439Z,16.97
2018-10-18T12:29:11.375Z,21.70
2018-10-18T12:31:39.093Z,22.63
2018-10-18T12:34:08.072Z,23.17
2018-10-18T12:36:35.833Z,18.20
2018-10-18T12:39:04.442Z,21.83
2018-10-18T12:41:32.641Z,19.27
2018-10-18T12:44:00.849Z,26.40
2018-10-18T12:46:29.172Z,22.97
2018-10-18T12:48:57.499Z,22.47
2018-10-18T12:51:25.850Z,23.80
2018-10-18T12:53:54.794Z,20.87
2018-10-18T12:56:22.556Z,25.43
2018-10-18T12:58:51.446Z,21.03
2018-10-18T13:01:19.785Z,26.13
2018-10-18T13:03:48.108Z,30.23
2018-10-18T13:06:16.165Z,104.30
2018-10-18T13:08:44.326Z,25.70
2018-10-18T13:11:13.263Z,23.10
2018-10-18T13:13:41.092Z,27.67
2018-10-18T13:16:10.015Z,22.33
2018-10-18T13:18:38.417Z,24.50
2018-10-18T13:21:06.754Z,30.83
2018-10-18T13:23:35.159Z,34.00
2018-10-18T13:26:03.823Z,27.20
2018-10-18T13:28:32.135Z,26.73
2018-10-18T13:31:00.461Z,21.77
2018-10-18T13:33:28.798Z,21.97
2018-10-18T13:35:57.437Z,26.30
2018-10-18T13:38:25.739Z,44.58
2018-10-18T13:40:54.132Z,24.60
2018-10-18T13:43:22.386Z,20.37
2018-10-18T13:45:50.711Z,23.92
2018-10-18T13:48:18.460Z,25.37
2018-10-18T13:50:47.379Z,23.80
2018-10-18T13:53:16.207Z,21.73
2018-10-18T13:55:45.048Z,20.57
2018-10-18T13:58:13.371Z,24.10
2018-10-18T14:00:42.582Z,25.73
2018-10-18T14:03:10.911Z,23.23
2018-10-18T14:05:39.536Z,25.60
2018-10-18T14:08:07.919Z,21.20
2018-10-18T14:10:36.184Z,27.53
2018-10-18T14:13:04.980Z,22.90
2018-10-18T14:15:33.359Z,26.73
2018-10-18T14:18:01.679Z,28.73
2018-10-18T14:20:29.428Z,29.27
2018-10-18T14:22:57.784Z,26.77
2018-10-18T14:25:26.664Z,25.63
2018-10-18T14:27:54.415Z,30.53
2018-10-18T14:30:23.363Z,36.90
2018-10-18T14:32:51.073Z,39.23
2018-10-18T14:35:20.054Z,31.47
2018-10-18T14:37:47.768Z,30.97
2018-10-18T14:40:16.741Z,37.40
2018-10-18T14:42:44.600Z,29.17
2018-10-18T14:45:13.549Z,33.43
2018-10-18T14:47:42.027Z,36.97
2018-10-18T14:50:09.754Z,41.07
2018-10-18T14:52:38.574Z,36.63
2018-10-18T14:55:06.934Z,34.00
2018-10-18T14:57:35.343Z,39.23
2018-10-18T15:00:03.736Z,56.07
2018-10-18T15:02:32.041Z,52.57
2018-10-18T15:05:00.417Z,56.70
2018-10-18T15:07:28.976Z,51.00
2018-10-18T15:09:56.731Z,101.33
2018-10-18T15:12:25.652Z,99.23
2018-10-18T15:14:53.397Z,71.60
2018-10-18T15:17:23.209Z,48.00
2018-10-18T15:19:50.979Z,39.87
2018-10-18T15:22:19.999Z,38.67
2018-10-18T15:24:48.630Z,35.87
2018-10-18T15:27:17.003Z,44.97
2018-10-18T15:29:44.715Z,44.07
2018-10-18T15:32:13.702Z,69.03
2018-10-18T15:34:41.400Z,44.87
2018-10-18T15:37:10.332Z,42.37
2018-10-18T15:39:38.137Z,44.10
2018-10-18T15:42:06.980Z,44.43
2018-10-18T15:44:35.300Z,54.80
2018-10-18T15:47:03.640Z,48.83
2018-10-18T15:49:31.377Z,50.50
2018-10-18T15:51:59.710Z,50.07
2018-10-18T15:54:28.715Z,65.30
2018-10-18T15:56:56.504Z,50.37
2018-10-18T15:59:25.630Z,50.70
2018-10-18T16:01:53.947Z,52.70
2018-10-18T16:04:21.728Z,55.90
2018-10-18T16:06:50.016Z,57.97
2018-10-18T16:09:18.936Z,55.40
2018-10-18T16:11:47.270Z,56.00
2018-10-18T16:14:15.629Z,50.17
2018-10-18T16:16:43.923Z,54.03
2018-10-18T16:19:12.254Z,49.10
2018-10-18T16:21:40.024Z,58.27
2018-10-18T16:24:09.002Z,56.53
2018-10-18T16:26:37.349Z,52.63
2018-10-18T16:29:05.919Z,51.57
2018-10-18T16:31:34.209Z,65.20
2018-10-18T16:34:02.638Z,54.60
2018-10-18T16:36:30.876Z,59.57
2018-10-18T16:38:59.207Z,54.40
2018-10-18T16:41:27.984Z,57.40
2018-10-18T16:43:56.212Z,65.73
2018-10-18T16:46:24.556Z,59.17
2018-10-18T16:48:52.901Z,84.33
2018-10-18T16:51:21.514Z,68.90
2018-10-18T16:53:50.135Z,80.40
2018-10-18T16:56:18.477Z,73.53
2018-10-18T16:58:46.241Z,85.73
2018-10-18T17:01:14.580Z,85.97
2018-10-18T17:03:43.751Z,99.97
2018-10-18T17:06:12.837Z,98.03
2018-10-18T17:08:41.407Z,93.33
2018-10-18T17:11:10.560Z,80.07
2018-10-18T17:13:38.848Z,80.17
2018-10-18T17:16:07.246Z,77.47
2018-10-18T17:18:35.534Z,68.80
2018-10-18T17:21:03.880Z,66.63
2018-10-18T17:23:31.913Z,125.43
2018-10-18T17:26:00.653Z,104.67
2018-10-18T17:28:28.931Z,82.47
2018-10-18T17:30:56.863Z,94.77
2018-10-18T17:33:25.000Z,88.17
2018-10-18T17:35:53.931Z,91.63
2018-10-18T17:38:22.249Z,92.00
2018-10-18T17:40:50.629Z,111.50
2018-10-18T17:43:18.934Z,122.27
2018-10-18T17:45:47.262Z,72.70
2018-10-18T17:48:15.750Z,85.60
2018-10-18T17:50:43.354Z,83.53
2018-10-18T17:53:12.379Z,85.47
2018-10-18T17:55:40.040Z,83.77
2018-10-18T17:58:08.444Z,83.20
2018-10-18T18:00:36.852Z,86.00
2018-10-18T18:03:05.182Z,86.60
2018-10-18T18:05:34.315Z,86.23
2018-10-18T18:08:01.854Z,78.10
2018-10-18T18:10:30.765Z,76.27
2018-10-18T18:12:58.521Z,80.17
2018-10-18T18:15:27.695Z,78.20
2018-10-18T18:17:56.031Z,82.80
2018-10-18T18:20:23.826Z,86.20
2018-10-18T18:22:52.193Z,82.77
2018-10-18T18:25:20.493Z,100.53
2018-10-18T18:27:49.788Z,100.83
2018-10-18T18:30:18.214Z,105.67
2018-10-18T18:32:46.549Z,94.37
2018-10-18T18:35:14.304Z,94.30
2018-10-18T18:37:43.291Z,88.73
2018-10-18T18:40:11.740Z,92.60
2018-10-18T18:42:40.161Z,94.30
2018-10-18T18:45:08.520Z,80.57
2018-10-18T18:47:36.241Z,79.07
2018-10-18T18:50:05.151Z,84.63
2018-10-18T18:52:33.527Z,74.97
2018-10-18T18:55:01.280Z,76.73
2018-10-18T18:57:30.200Z,66.37
2018-10-18T18:59:58.544Z,69.67
2018-10-18T19:02:26.938Z,65.87
2018-10-18T19:04:55.273Z,68.60
2018-10-18T19:07:23.056Z,68.50
2018-10-18T19:09:52.232Z,66.80
2018-10-18T19:12:19.988Z,69.27
2018-10-18T19:14:48.343Z,65.00
2018-10-18T19:17:17.258Z,70.27
2018-10-18T19:19:46.064Z,73.43
2018-10-18T19:22:14.403Z,71.07
2018-10-18T19:24:42.152Z,74.03
2018-10-18T19:27:10.482Z,62.90
2018-10-18T19:29:39.397Z,75.13
2018-10-18T19:32:07.270Z,68.30
2018-10-18T19:34:35.511Z,68.17
2018-10-18T19:37:04.512Z,69.83
2018-10-18T19:39:32.891Z,64.63
2018-10-18T19:42:02.086Z,63.43
2018-10-18T19:44:31.391Z,63.63
2018-10-18T19:47:01.630Z,69.97
2018-10-18T19:49:29.132Z,67.23
2018-10-18T19:51:58.592Z,101.87
2018-10-18T19:54:26.887Z,114.50
2018-10-18T19:56:55.201Z,78.70
2018-10-18T19:59:22.981Z,74.73
2018-10-18T20:01:51.313Z,72.97
2018-10-18T20:04:20.304Z,73.03
2018-10-18T20:06:48.906Z,71.47
2018-10-18T20:09:17.244Z,75.00
2018-10-18T20:11:45.570Z,79.97
2018-10-18T20:14:13.593Z,79.43
2018-10-18T20:16:41.650Z,79.90
2018-10-18T20:19:09.980Z,113.63
2018-10-18T20:21:38.896Z,86.77
2018-10-18T20:24:06.701Z,67.47
2018-10-18T20:26:35.546Z,71.40
2018-10-18T20:29:03.290Z,75.47
2018-10-18T20:31:32.203Z,70.47
2018-10-18T20:34:00.521Z,70.93
2018-10-18T20:36:28.844Z,67.80
2018-10-18T20:38:56.648Z,77.17
2018-10-18T20:41:25.075Z,80.40
2018-10-18T20:43:53.837Z,69.00
2018-10-18T20:46:22.103Z,73.13
2018-10-18T20:48:50.836Z,63.70
2018-10-18T20:51:20.336Z,60.60
2018-10-18T20:53:48.080Z,63.07
2018-10-18T20:56:16.406Z,57.53
2018-10-18T20:58:45.556Z,56.30
2018-10-18T21:01:13.628Z,61.37
2018-10-18T21:03:41.378Z,58.10
2018-10-18T21:06:09.789Z,55.73
2018-10-18T21:08:38.053Z,52.73
2018-10-18T21:11:06.427Z,49.10
2018-10-18T21:13:34.705Z,49.27
2018-10-18T21:16:03.607Z,50.60
2018-10-18T21:18:31.935Z,47.73
2018-10-18T21:21:00.316Z,51.03
2018-10-18T21:23:28.582Z,54.00
2018-10-18T21:25:56.900Z,45.47
2018-10-18T21:28:24.648Z,45.50
2018-10-18T21:30:52.973Z,46.03
2018-10-18T21:33:22.484Z,42.83
2018-10-18T21:35:50.228Z,38.37
2018-10-18T21:38:19.136Z,41.93
2018-10-18T21:40:46.934Z,34.33
2018-10-18T21:43:15.207Z,33.63
2018-10-18T21:45:44.114Z,31.80
2018-10-18T21:48:12.433Z,30.67
2018-10-18T21:50:40.181Z,30.00
2018-10-18T21:53:09.961Z,30.60
2018-10-18T21:55:38.224Z,29.10
2018-10-18T21:58:06.772Z,29.43
2018-10-18T22:00:34.282Z,29.33
2018-10-18T22:03:03.263Z,25.43
2018-10-18T22:05:31.533Z,25.47
2018-10-18T22:07:59.301Z,26.47
2018-10-18T22:10:27.624Z,24.40
2018-10-18T22:12:55.946Z,20.87
2018-10-18T22:15:24.271Z,19.83
2018-10-18T22:17:53.174Z,20.43
2018-10-18T22:20:21.498Z,21.27
2018-10-18T22:22:49.244Z,19.63
2018-10-18T22:25:17.568Z,20.70
2018-10-18T22:27:45.893Z,19.73
2018-10-18T22:30:14.214Z,18.07
2018-10-18T22:32:43.119Z,17.97
2018-10-18T22:35:11.340Z,18.23
2018-10-18T22:37:39.176Z,17.80
2018-10-18T22:40:08.085Z,16.53
2018-10-18T22:42:36.403Z,16.30
2018-10-18T22:45:04.763Z,14.90
2018-10-18T22:47:33.057Z,16.90
2018-10-18T22:50:01.381Z,15.50
2018-10-18T22:52:29.115Z,11.90
2018-10-18T22:54:57.434Z,12.60
2018-10-18T22:57:25.753Z,12.37
2018-10-18T22:59:54.494Z,14.00
2018-10-18T23:02:22.964Z,11.63
2018-10-18T23:04:51.288Z,10.93
2018-10-18T23:07:19.025Z,11.00
2018-10-18T23:09:47.373Z,9.80
2018-10-18T23:12:16.264Z,10.73
2018-10-18T23:14:43.999Z,9.63
2018-10-18T23:17:12.384Z,8.67
2018-10-18T23:19:41.197Z,8.90
2018-10-18T23:22:08.927Z,7.60
2018-10-18T23:24:37.244Z,8.50
2018-10-18T23:27:06.916Z,7.43
2018-10-18T23:29:33.857Z,7.97
2018-10-18T23:32:02.165Z,6.13
2018-10-18T23:34:30.482Z,5.63
2018-10-18T23:36:59.372Z,7.10
2018-10-18T23:39:27.689Z,4.70
2018-10-18T23:41:55.432Z,6.50
2018-10-18T23:44:23.965Z,5.30
2018-10-18T23:46:52.058Z,7.40
2018-10-18T23:49:20.947Z,6.37
2018-10-18T23:51:48.673Z,4.33
2018-10-18T23:54:16.986Z,6.17
2018-10-18T23:56:45.600Z,8.37
2018-10-18T23:59:13.664Z,5.70
